Airfield :
LOGIN :

Register | Disclaimer

   EN    FR    IT 

 










Legend :    VFR   Marginal VFR   IFR   Intensive IFR   Very Intensive IFR
Visi :
Ceiling :
>= 8 km
>= 3000ft
5 to 8 km
1000 to 3000 ft
1500m to 5 km
500 to 1000 ft
800 to 1500m
200 to 500 ft
< 800m
< 200 ft
Symbols :   Thunderstorms  Fog  Heavy snow  Heavy precipitations  Wind > 20 kt
SIGMETs :     Misc.  Thunderstorms  Icing  Turbulence  Mountain Waves  Volcanic Ashes






- Airport Elevation : 52 ft
- IATA code : IOM


EGNS - Isle of Man

CURRENT METAR :
  • 152020Z 22017KT 9999 FEW022 08/03 Q0988 NOSIG

EXPIRED METARs :
  • 151950Z 23018KT 200V270 9999 FEW022 SCT030 07/03 Q0988 NOSIG
  • 151920Z 22020KT 190V270 9999 FEW023 BKN035 07/03 Q0988 RESHRA NOSIG
  • 151820Z 23017KT 9999 FEW024 BKN035 07/02 Q0988 NOSIG
  • 151750Z 23014KT 9999 FEW024 SCT035 06/03 Q0988 NOSIG

TAF TAF EGNS
Valid from the 15 at 18:00 until the 15 at 22:00 UTC


151700Z 1518/1522 20015KT 9999 FEW020
PROB30
TEMPO 1518/1522 21020G30KT 7000 SHRA



MET'MAP, your aeronautical weather chart ! - Copyright ORBIFLY December 2007 - Disclaimer

ORBIFLY MET'MAP TEAM :

Programming & Development : Alexandra Zaïnal
Concept & original design : Baudouin d'Aumeries
Assistance for programming : Marc-Olivier Méhu
Technical & hardware support : Manuel Goepfert

Contact : metmap@orbifly.com




SOURCES & CREDITS :

   NOAA